Aviation Digital Data Service (ADDS)

Output produced by METARs form (1905 UTC 25 September 2020)
found at http://www.aviationweather.gov/metar/data/
 
METAR text: KAUS 251853Z VRB04KT 10SM FEW037 28/20 A2998 RMK AO2 SLP144 T02830200
Conditions at: KAUS (AUSTIN , TX, US) observed 1853 UTC 25 September 2020
Temperature: 28.3°C (83°F)
Dewpoint: 20.0°C (68°F) [RH = 61%]
Pressure (altimeter): 29.98 inches Hg (1015.3 mb)
[Sea-level pressure: 1014.4 mb]
Winds: variable direction winds at 5 MPH (4 knots; 2.1 m/s)
Visibility: 10 or more miles (16+ km)
Ceiling: at least 12,000 feet AGL
Clouds: few clouds at 3700 feet AGL
Weather: no significant weather observed at this time

METAR text: KAUS 251753Z VRB04KT 10SM FEW035 27/19 A3001 RMK AO2 SLP155 T02720194 10272 20139 58008
Conditions at: KAUS (AUSTIN , TX, US) observed 1753 UTC 25 September 2020
Temperature: 27.2°C (81°F)
Dewpoint: 19.4°C (67°F) [RH = 62%]
Pressure (altimeter): 30.01 inches Hg (1016.3 mb)
[Sea-level pressure: 1015.5 mb]
Winds: variable direction winds at 5 MPH (4 knots; 2.1 m/s)
Visibility: 10 or more miles (16+ km)
Ceiling: at least 12,000 feet AGL
Clouds: few clouds at 3500 feet AGL
Weather: no significant weather observed at this time

METAR text: KAUS 251653Z 23004KT 10SM FEW021 26/19 A3003 RMK AO2 SLP162 T02560189
Conditions at: KAUS (AUSTIN , TX, US) observed 1653 UTC 25 September 2020
Temperature: 25.6°C (78°F)
Dewpoint: 18.9°C (66°F) [RH = 67%]
Pressure (altimeter): 30.03 inches Hg (1017.0 mb)
[Sea-level pressure: 1016.2 mb]
Winds: from the SW (230 degrees) at 5 MPH (4 knots; 2.1 m/s)
Visibility: 10 or more miles (16+ km)
Ceiling: at least 12,000 feet AGL
Clouds: few clouds at 2100 feet AGL
Weather: no significant weather observed at this time

METAR text: KAUS 251553Z 24005KT 10SM SCT018 24/19 A3004 RMK AO2 SLP164 T02440189
Conditions at: KAUS (AUSTIN , TX, US) observed 1553 UTC 25 September 2020
Temperature: 24.4°C (76°F)
Dewpoint: 18.9°C (66°F) [RH = 71%]
Pressure (altimeter): 30.04 inches Hg (1017.4 mb)
[Sea-level pressure: 1016.4 mb]
Winds: from the WSW (240 degrees) at 6 MPH (5 knots; 2.6 m/s)
Visibility: 10 or more miles (16+ km)
Ceiling: at least 12,000 feet AGL
Clouds: scattered clouds at 1800 feet AGL
Weather: no significant weather observed at this time

METAR text: KAUS 251453Z 00000KT 10SM FEW010 22/18 A3003 RMK AO2 SLP163 T02170183 53016
Conditions at: KAUS (AUSTIN , TX, US) observed 1453 UTC 25 September 2020
Temperature: 21.7°C (71°F)
Dewpoint: 18.3°C (65°F) [RH = 81%]
Pressure (altimeter): 30.03 inches Hg (1017.0 mb)
[Sea-level pressure: 1016.3 mb]
Winds: calm
Visibility: 10 or more miles (16+ km)
Ceiling: at least 12,000 feet AGL
Clouds: few clouds at 1000 feet AGL
Weather: no significant weather observed at this time

METAR text: KAUS 251353Z 23004KT 10SM CLR 19/17 A3001 RMK AO2 SLP158 T01890172
Conditions at: KAUS (AUSTIN , TX, US) observed 1353 UTC 25 September 2020
Temperature: 18.9°C (66°F)
Dewpoint: 17.2°C (63°F) [RH = 90%]
Pressure (altimeter): 30.01 inches Hg (1016.3 mb)
[Sea-level pressure: 1015.8 mb]
Winds: from the SW (230 degrees) at 5 MPH (4 knots; 2.1 m/s)
Visibility: 10 or more miles (16+ km)
Ceiling: at least 12,000 feet AGL
Clouds: sky clear below 12,000 feet AGL
Weather: no significant weather observed at this time

METAR text: KAUS 251253Z 00000KT 9SM BCFG CLR 15/14 A3000 RMK AO2 SLP153 T01500144
Conditions at: KAUS (AUSTIN , TX, US) observed 1253 UTC 25 September 2020
Temperature: 15.0°C (59°F)
Dewpoint: 14.4°C (58°F) [RH = 96%]
Pressure (altimeter): 30.00 inches Hg (1016.0 mb)
[Sea-level pressure: 1015.3 mb]
Winds: calm
Visibility: 9 miles (14 km)
Ceiling: at least 12,000 feet AGL
Clouds: sky clear below 12,000 feet AGL
Weather: BCFG  (patches of fog)

METAR text: KAUS 251153Z 00000KT 9SM BCFG CLR 14/13 A2998 RMK AO2 SLP147 T01390133 10161 20139 53013
Conditions at: KAUS (AUSTIN , TX, US) observed 1153 UTC 25 September 2020
Temperature: 13.9°C (57°F)
Dewpoint: 13.3°C (56°F) [RH = 96%]
Pressure (altimeter): 29.98 inches Hg (1015.3 mb)
[Sea-level pressure: 1014.7 mb]
Winds: calm
Visibility: 9 miles (14 km)
Ceiling: at least 12,000 feet AGL
Clouds: sky clear below 12,000 feet AGL
Weather: BCFG  (patches of fog)

METAR text: KAUS 251053Z 00000KT 10SM CLR 14/14 A2996 RMK AO2 SLP140 T01440139
Conditions at: KAUS (AUSTIN , TX, US) observed 1053 UTC 25 September 2020
Temperature: 14.4°C (58°F)
Dewpoint: 13.9°C (57°F) [RH = 97%]
Pressure (altimeter): 29.96 inches Hg (1014.6 mb)
[Sea-level pressure: 1014.0 mb]
Winds: calm
Visibility: 10 or more miles (16+ km)
Ceiling: at least 12,000 feet AGL
Clouds: sky clear below 12,000 feet AGL
Weather: no significant weather observed at this time

METAR text: KAUS 250953Z 26003KT 10SM CLR 14/13 A2995 RMK AO2 SLP137 T01440133
Conditions at: KAUS (AUSTIN , TX, US) observed 0953 UTC 25 September 2020
Temperature: 14.4°C (58°F)
Dewpoint: 13.3°C (56°F) [RH = 93%]
Pressure (altimeter): 29.95 inches Hg (1014.3 mb)
[Sea-level pressure: 1013.7 mb]
Winds: from the W (260 degrees) at 3 MPH (3 knots; 1.5 m/s)
Visibility: 10 or more miles (16+ km)
Ceiling: at least 12,000 feet AGL
Clouds: sky clear below 12,000 feet AGL
Weather: no significant weather observed at this time

METAR text: KAUS 250853Z 25003KT 10SM CLR 14/14 A2994 RMK AO2 SLP134 T01440139 58004
Conditions at: KAUS (AUSTIN , TX, US) observed 0853 UTC 25 September 2020
Temperature: 14.4°C (58°F)
Dewpoint: 13.9°C (57°F) [RH = 97%]
Pressure (altimeter): 29.94 inches Hg (1014.0 mb)
[Sea-level pressure: 1013.4 mb]
Winds: from the WSW (250 degrees) at 3 MPH (3 knots; 1.5 m/s)
Visibility: 10 or more miles (16+ km)
Ceiling: at least 12,000 feet AGL
Clouds: sky clear below 12,000 feet AGL
Weather: no significant weather observed at this time

METAR text: KAUS 250753Z 00000KT 10SM CLR 15/14 A2995 RMK AO2 SLP137 T01500144
Conditions at: KAUS (AUSTIN , TX, US) observed 0753 UTC 25 September 2020
Temperature: 15.0°C (59°F)
Dewpoint: 14.4°C (58°F) [RH = 96%]
Pressure (altimeter): 29.95 inches Hg (1014.3 mb)
[Sea-level pressure: 1013.7 mb]
Winds: calm
Visibility: 10 or more miles (16+ km)
Ceiling: at least 12,000 feet AGL
Clouds: sky clear below 12,000 feet AGL
Weather: no significant weather observed at this time

METAR text: KAUS 250653Z 00000KT 10SM CLR 16/14 A2996 RMK AO2 SLP139 T01560144
Conditions at: KAUS (AUSTIN , TX, US) observed 0653 UTC 25 September 2020
Temperature: 15.6°C (60°F)
Dewpoint: 14.4°C (58°F) [RH = 93%]
Pressure (altimeter): 29.96 inches Hg (1014.6 mb)
[Sea-level pressure: 1013.9 mb]
Winds: calm
Visibility: 10 or more miles (16+ km)
Ceiling: at least 12,000 feet AGL
Clouds: sky clear below 12,000 feet AGL
Weather: no significant weather observed at this time

METAR text: KAUS 250553Z 00000KT 10SM CLR 16/15 A2996 RMK AO2 SLP138 T01560150 10244 20156 402670156 51002
Conditions at: KAUS (AUSTIN , TX, US) observed 0553 UTC 25 September 2020
Temperature: 15.6°C (60°F)
Dewpoint: 15.0°C (59°F) [RH = 96%]
Pressure (altimeter): 29.96 inches Hg (1014.6 mb)
[Sea-level pressure: 1013.8 mb]
Winds: calm
Visibility: 10 or more miles (16+ km)
Ceiling: at least 12,000 feet AGL
Clouds: sky clear below 12,000 feet AGL
Weather: no significant weather observed at this time

METAR text: KAUS 250453Z 00000KT 10SM CLR 17/16 A2995 RMK AO2 SLP138 T01670156
Conditions at: KAUS (AUSTIN , TX, US) observed 0453 UTC 25 September 2020
Temperature: 16.7°C (62°F)
Dewpoint: 15.6°C (60°F) [RH = 93%]
Pressure (altimeter): 29.95 inches Hg (1014.3 mb)
[Sea-level pressure: 1013.8 mb]
Winds: calm
Visibility: 10 or more miles (16+ km)
Ceiling: at least 12,000 feet AGL
Clouds: sky clear below 12,000 feet AGL
Weather: no significant weather observed at this time

METAR text: KAUS 250353Z 00000KT 10SM CLR 18/17 A2996 RMK AO2 SLP139 T01780167
Conditions at: KAUS (AUSTIN , TX, US) observed 0353 UTC 25 September 2020
Temperature: 17.8°C (64°F)
Dewpoint: 16.7°C (62°F) [RH = 93%]
Pressure (altimeter): 29.96 inches Hg (1014.6 mb)
[Sea-level pressure: 1013.9 mb]
Winds: calm
Visibility: 10 or more miles (16+ km)
Ceiling: at least 12,000 feet AGL
Clouds: sky clear below 12,000 feet AGL
Weather: no significant weather observed at this time

METAR text: KAUS 250253Z 00000KT 10SM CLR 18/17 A2995 RMK AO2 SLP135 T01780167 53014
Conditions at: KAUS (AUSTIN , TX, US) observed 0253 UTC 25 September 2020
Temperature: 17.8°C (64°F)
Dewpoint: 16.7°C (62°F) [RH = 93%]
Pressure (altimeter): 29.95 inches Hg (1014.3 mb)
[Sea-level pressure: 1013.5 mb]
Winds: calm
Visibility: 10 or more miles (16+ km)
Ceiling: at least 12,000 feet AGL
Clouds: sky clear below 12,000 feet AGL
Weather: no significant weather observed at this time

METAR text: KAUS 250153Z 00000KT 10SM CLR 19/17 A2994 RMK AO2 SLP130 T01890167
Conditions at: KAUS (AUSTIN , TX, US) observed 0153 UTC 25 September 2020
Temperature: 18.9°C (66°F)
Dewpoint: 16.7°C (62°F) [RH = 87%]
Pressure (altimeter): 29.94 inches Hg (1014.0 mb)
[Sea-level pressure: 1013.0 mb]
Winds: calm
Visibility: 10 or more miles (16+ km)
Ceiling: at least 12,000 feet AGL
Clouds: sky clear below 12,000 feet AGL
Weather: no significant weather observed at this time

METAR text: KAUS 250053Z 09003KT 10SM FEW200 21/18 A2991 RMK AO2 SLP123 T02110178
Conditions at: KAUS (AUSTIN , TX, US) observed 0053 UTC 25 September 2020
Temperature: 21.1°C (70°F)
Dewpoint: 17.8°C (64°F) [RH = 81%]
Pressure (altimeter): 29.91 inches Hg (1013.0 mb)
[Sea-level pressure: 1012.3 mb]
Winds: from the E (90 degrees) at 3 MPH (3 knots; 1.5 m/s)
Visibility: 10 or more miles (16+ km)
Ceiling: at least 12,000 feet AGL
Clouds: few clouds at 20000 feet AGL
Weather: no significant weather observed at this time

METAR text: KAUS 242353Z 07005KT 10SM CLR 24/18 A2991 RMK AO2 SLP120 T02440178 10267 20239 56007
Conditions at: KAUS (AUSTIN , TX, US) observed 2353 UTC 24 September 2020
Temperature: 24.4°C (76°F)
Dewpoint: 17.8°C (64°F) [RH = 67%]
Pressure (altimeter): 29.91 inches Hg (1013.0 mb)
[Sea-level pressure: 1012.0 mb]
Winds: from the ENE (70 degrees) at 6 MPH (5 knots; 2.6 m/s)
Visibility: 10 or more miles (16+ km)
Ceiling: at least 12,000 feet AGL
Clouds: sky clear below 12,000 feet AGL
Weather: no significant weather observed at this time

METAR text: KAUS 242253Z 07006KT 10SM FEW033 26/18 A2991 RMK AO2 SLP119 T02610178
Conditions at: KAUS (AUSTIN , TX, US) observed 2253 UTC 24 September 2020
Temperature: 26.1°C (79°F)
Dewpoint: 17.8°C (64°F) [RH = 60%]
Pressure (altimeter): 29.91 inches Hg (1013.0 mb)
[Sea-level pressure: 1011.9 mb]
Winds: from the ENE (70 degrees) at 7 MPH (6 knots; 3.1 m/s)
Visibility: 10 or more miles (16+ km)
Ceiling: at least 12,000 feet AGL
Clouds: few clouds at 3300 feet AGL
Weather: no significant weather observed at this time

METAR text: KAUS 242153Z 04006KT 10SM FEW033 26/17 A2992 RMK AO2 SLP121 T02610172
Conditions at: KAUS (AUSTIN , TX, US) observed 2153 UTC 24 September 2020
Temperature: 26.1°C (79°F)
Dewpoint: 17.2°C (63°F) [RH = 58%]
Pressure (altimeter): 29.92 inches Hg (1013.3 mb)
[Sea-level pressure: 1012.1 mb]
Winds: from the NE (40 degrees) at 7 MPH (6 knots; 3.1 m/s)
Visibility: 10 or more miles (16+ km)
Ceiling: at least 12,000 feet AGL
Clouds: few clouds at 3300 feet AGL
Weather: no significant weather observed at this time

METAR text: KAUS 242053Z 01008KT 10SM BKN033 26/17 A2993 RMK AO2 SLP126 T02560172 58018
Conditions at: KAUS (AUSTIN , TX, US) observed 2053 UTC 24 September 2020
Temperature: 25.6°C (78°F)
Dewpoint: 17.2°C (63°F) [RH = 60%]
Pressure (altimeter): 29.93 inches Hg (1013.6 mb)
[Sea-level pressure: 1012.6 mb]
Winds: from the N (10 degrees) at 9 MPH (8 knots; 4.1 m/s)
Visibility: 10 or more miles (16+ km)
Ceiling: 3300 feet AGL
Clouds: broken clouds at 3300 feet AGL
Weather: no significant weather observed at this time

METAR text: KAUS 241953Z 02005KT 10SM OVC033 25/17 A2995 RMK AO2 SLP135 T02500167
Conditions at: KAUS (AUSTIN , TX, US) observed 1953 UTC 24 September 2020
Temperature: 25.0°C (77°F)
Dewpoint: 16.7°C (62°F) [RH = 60%]
Pressure (altimeter): 29.95 inches Hg (1014.3 mb)
[Sea-level pressure: 1013.5 mb]
Winds: from the NNE (20 degrees) at 6 MPH (5 knots; 2.6 m/s)
Visibility: 10 or more miles (16+ km)
Ceiling: 3300 feet AGL
Clouds: overcast cloud deck at 3300 feet AGL
Weather: no significant weather observed at this time

METAR text: KAUS 241853Z 32008KT 10SM OVC034 24/17 A2997 RMK AO2 SLP141 T02440172
Conditions at: KAUS (AUSTIN , TX, US) observed 1853 UTC 24 September 2020
Temperature: 24.4°C (76°F)
Dewpoint: 17.2°C (63°F) [RH = 64%]
Pressure (altimeter): 29.97 inches Hg (1015.0 mb)
[Sea-level pressure: 1014.1 mb]
Winds: from the NW (320 degrees) at 9 MPH (8 knots; 4.1 m/s)
Visibility: 10 or more miles (16+ km)
Ceiling: 3400 feet AGL
Clouds: overcast cloud deck at 3400 feet AGL
Weather: no significant weather observed at this time

METAR text: KAUS 241753Z 34007KT 10SM OVC032 24/17 A2998 RMK AO2 SLP145 T02390172 10239 20211 50001
Conditions at: KAUS (AUSTIN , TX, US) observed 1753 UTC 24 September 2020
Temperature: 23.9°C (75°F)
Dewpoint: 17.2°C (63°F) [RH = 66%]
Pressure (altimeter): 29.98 inches Hg (1015.3 mb)
[Sea-level pressure: 1014.5 mb]
Winds: from the NNW (340 degrees) at 8 MPH (7 knots; 3.6 m/s)
Visibility: 10 or more miles (16+ km)
Ceiling: 3200 feet AGL
Clouds: overcast cloud deck at 3200 feet AGL
Weather: no significant weather observed at this time

METAR text: KAUS 241653Z 36011KT 10SM OVC030 23/17 A2999 RMK AO2 SLP147 T02330172
Conditions at: KAUS (AUSTIN , TX, US) observed 1653 UTC 24 September 2020
Temperature: 23.3°C (74°F)
Dewpoint: 17.2°C (63°F) [RH = 69%]
Pressure (altimeter): 29.99 inches Hg (1015.7 mb)
[Sea-level pressure: 1014.7 mb]
Winds: from the N (360 degrees) at 13 MPH (11 knots; 5.7 m/s)
Visibility: 10 or more miles (16+ km)
Ceiling: 3000 feet AGL
Clouds: overcast cloud deck at 3000 feet AGL
Weather: no significant weather observed at this time

METAR text: KAUS 241553Z 35007KT 10SM OVC030 23/17 A2999 RMK AO2 SLP148 T02280172
Conditions at: KAUS (AUSTIN , TX, US) observed 1553 UTC 24 September 2020
Temperature: 22.8°C (73°F)
Dewpoint: 17.2°C (63°F) [RH = 71%]
Pressure (altimeter): 29.99 inches Hg (1015.7 mb)
[Sea-level pressure: 1014.8 mb]
Winds: from the N (350 degrees) at 8 MPH (7 knots; 3.6 m/s)
Visibility: 10 or more miles (16+ km)
Ceiling: 3000 feet AGL
Clouds: overcast cloud deck at 3000 feet AGL
Weather: no significant weather observed at this time

METAR text: KAUS 241453Z 35006KT 10SM OVC030 23/17 A2998 RMK AO2 SLP144 T02280172 53015
Conditions at: KAUS (AUSTIN , TX, US) observed 1453 UTC 24 September 2020
Temperature: 22.8°C (73°F)
Dewpoint: 17.2°C (63°F) [RH = 71%]
Pressure (altimeter): 29.98 inches Hg (1015.3 mb)
[Sea-level pressure: 1014.4 mb]
Winds: from the N (350 degrees) at 7 MPH (6 knots; 3.1 m/s)
Visibility: 10 or more miles (16+ km)
Ceiling: 3000 feet AGL
Clouds: overcast cloud deck at 3000 feet AGL
Weather: no significant weather observed at this time

METAR text: KAUS 241353Z 33004KT 10SM OVC030 22/18 A2996 RMK AO2 SLP137 T02220178
Conditions at: KAUS (AUSTIN , TX, US) observed 1353 UTC 24 September 2020
Temperature: 22.2°C (72°F)
Dewpoint: 17.8°C (64°F) [RH = 76%]
Pressure (altimeter): 29.96 inches Hg (1014.6 mb)
[Sea-level pressure: 1013.7 mb]
Winds: from the NNW (330 degrees) at 5 MPH (4 knots; 2.1 m/s)
Visibility: 10 or more miles (16+ km)
Ceiling: 3000 feet AGL
Clouds: overcast cloud deck at 3000 feet AGL
Weather: no significant weather observed at this time

METAR text: KAUS 241253Z 00000KT 10SM OVC030 22/18 A2995 RMK AO2 SLP134 T02170178
Conditions at: KAUS (AUSTIN , TX, US) observed 1253 UTC 24 September 2020
Temperature: 21.7°C (71°F)
Dewpoint: 17.8°C (64°F) [RH = 79%]
Pressure (altimeter): 29.95 inches Hg (1014.3 mb)
[Sea-level pressure: 1013.4 mb]
Winds: calm
Visibility: 10 or more miles (16+ km)
Ceiling: 3000 feet AGL
Clouds: overcast cloud deck at 3000 feet AGL
Weather: no significant weather observed at this time

METAR text: KAUS 241153Z 34003KT 10SM OVC030 21/18 A2993 RMK AO2 SLP129 T02110178 10228 20211 53007
Conditions at: KAUS (AUSTIN , TX, US) observed 1153 UTC 24 September 2020
Temperature: 21.1°C (70°F)
Dewpoint: 17.8°C (64°F) [RH = 81%]
Pressure (altimeter): 29.93 inches Hg (1013.6 mb)
[Sea-level pressure: 1012.9 mb]
Winds: from the NNW (340 degrees) at 3 MPH (3 knots; 1.5 m/s)
Visibility: 10 or more miles (16+ km)
Ceiling: 3000 feet AGL
Clouds: overcast cloud deck at 3000 feet AGL
Weather: no significant weather observed at this time

METAR text: KAUS 241053Z 35004KT 10SM OVC032 21/18 A2992 RMK AO2 SLP123 T02110183
Conditions at: KAUS (AUSTIN , TX, US) observed 1053 UTC 24 September 2020
Temperature: 21.1°C (70°F)
Dewpoint: 18.3°C (65°F) [RH = 84%]
Pressure (altimeter): 29.92 inches Hg (1013.3 mb)
[Sea-level pressure: 1012.3 mb]
Winds: from the N (350 degrees) at 5 MPH (4 knots; 2.1 m/s)
Visibility: 10 or more miles (16+ km)
Ceiling: 3200 feet AGL
Clouds: overcast cloud deck at 3200 feet AGL
Weather: no significant weather observed at this time

METAR text: KAUS 240953Z 36004KT 10SM OVC032 21/18 A2991 RMK AO2 SLP121 T02110183
Conditions at: KAUS (AUSTIN , TX, US) observed 0953 UTC 24 September 2020
Temperature: 21.1°C (70°F)
Dewpoint: 18.3°C (65°F) [RH = 84%]
Pressure (altimeter): 29.91 inches Hg (1013.0 mb)
[Sea-level pressure: 1012.1 mb]
Winds: from the N (360 degrees) at 5 MPH (4 knots; 2.1 m/s)
Visibility: 10 or more miles (16+ km)
Ceiling: 3200 feet AGL
Clouds: overcast cloud deck at 3200 feet AGL
Weather: no significant weather observed at this time

METAR text: KAUS 240853Z 34004KT 10SM OVC030 22/18 A2991 RMK AO2 SLP122 T02170183 56004
Conditions at: KAUS (AUSTIN , TX, US) observed 0853 UTC 24 September 2020
Temperature: 21.7°C (71°F)
Dewpoint: 18.3°C (65°F) [RH = 81%]
Pressure (altimeter): 29.91 inches Hg (1013.0 mb)
[Sea-level pressure: 1012.2 mb]
Winds: from the NNW (340 degrees) at 5 MPH (4 knots; 2.1 m/s)
Visibility: 10 or more miles (16+ km)
Ceiling: 3000 feet AGL
Clouds: overcast cloud deck at 3000 feet AGL
Weather: no significant weather observed at this time

METAR text: KAUS 240753Z 01010KT 10SM OVC019 22/18 A2992 RMK AO2 SLP123 T02170178
Conditions at: KAUS (AUSTIN , TX, US) observed 0753 UTC 24 September 2020
Temperature: 21.7°C (71°F)
Dewpoint: 17.8°C (64°F) [RH = 79%]
Pressure (altimeter): 29.92 inches Hg (1013.3 mb)
[Sea-level pressure: 1012.3 mb]
Winds: from the N (10 degrees) at 12 MPH (10 knots; 5.1 m/s)
Visibility: 10 or more miles (16+ km)
Ceiling: 1900 feet AGL
Clouds: overcast cloud deck at 1900 feet AGL
Weather: no significant weather observed at this time

Forecast for: KAUS (AUSTIN , TX, US)
Text: KAUS 251730Z 2518/2624 17005KT P6SM FEW030
Forecast period: 1800 UTC 25 September 2020 to 0800 UTC 26 September 2020
Forecast type: FROM: standard forecast or significant change
Winds: from the S (170 degrees) at 6 MPH (5 knots; 2.6 m/s)
Visibility: 6 or more miles (10+ km)
Ceiling: at least 12,000 feet AGL
Clouds: few clouds at 3000 feet AGL
Weather: no significant weather forecast for this period
Text: FM260800 20003KT P6SM SKC
Forecast period: 0800 to 1500 UTC 26 September 2020
Forecast type: FROM: standard forecast or significant change
Winds: from the SSW (200 degrees) at 3 MPH (3 knots; 1.5 m/s)
Visibility: 6 or more miles (10+ km)
Clouds: clear skies
Weather: no significant weather forecast for this period
Text: TEMPO 2610/2614 SCT015
Forecast period: 1000 to 1400 UTC 26 September 2020
Forecast type: TEMPORARY: The following changes expected for less than half the time period
Visibility: missing
Ceiling: at least 12,000 feet AGL
Clouds: scattered clouds at 1500 feet AGL
Weather: no significant weather forecast for this period
Text: FM261500 19007KT P6SM SKC
Forecast period: 1500 UTC 26 September 2020 to 0000 UTC 27 September 2020
Forecast type: FROM: standard forecast or significant change
Winds: from the S (190 degrees) at 8 MPH (7 knots; 3.6 m/s)
Visibility: 6 or more miles (10+ km)
Clouds: clear skies
Weather: no significant weather forecast for this period